Woodbury, Tennessee
Current Conditions -  °F | °C
As of 4:53 AM on Monday 22 Dec 2014 (Local Time) from KBNA Reporting Station
Overcast Overcast  
Wind Chill: 45°   Ceiling: 2500
Heat Index: 48°   Visibility: 8mi
Dew Point: 44°   Wind: 7mph
Humidity: 86%   Direction: 140°SE
Pressure: 29.96"   Gusts: NA
Location:  35.83°N, 86.07°W
Report Text: KBNA 221053Z 14006KT 8SM OVC025 09/07 A2996 RMK AO2 SLP143 T00890067
Loading
Personal Weather Stations






























Interactive Weather Map New forecast layout! Learn more

10-Day Weather Forecast

Advertisements
Track Severe Weather on mobile